sensor_id;sensor_type;location;lat;lon;timestamp;P1;durP1;ratioP1;P2;durP2;ratioP2
69775;SDS011;57049;51.450;-2.516;2022-07-06T00:01:35;4.57;;;0.70;;
69775;SDS011;57049;51.450;-2.516;2022-07-06T00:04:01;3.50;;;0.50;;
69775;SDS011;57049;51.450;-2.516;2022-07-06T00:06:27;3.60;;;0.60;;
69775;SDS011;57049;51.450;-2.516;2022-07-06T00:08:52;5.27;;;0.90;;
69775;SDS011;57049;51.450;-2.516;2022-07-06T00:11:18;4.00;;;0.70;;
69775;SDS011;57049;51.450;-2.516;2022-07-06T00:13:44;3.08;;;0.60;;
69775;SDS011;57049;51.450;-2.516;2022-07-06T00:16:09;3.10;;;0.60;;
69775;SDS011;57049;51.450;-2.516;2022-07-06T00:18:35;3.75;;;0.80;;
69775;SDS011;57049;51.450;-2.516;2022-07-06T00:21:00;4.23;;;0.70;;
69775;SDS011;57049;51.450;-2.516;2022-07-06T00:23:26;3.63;;;0.70;;
69775;SDS011;57049;51.450;-2.516;2022-07-06T00:25:51;4.37;;;0.60;;
69775;SDS011;57049;51.450;-2.516;2022-07-06T00:28:17;3.93;;;0.60;;
69775;SDS011;57049;51.450;-2.516;2022-07-06T00:30:42;3.23;;;0.70;;
69775;SDS011;57049;51.450;-2.516;2022-07-06T00:33:08;4.47;;;0.90;;
69775;SDS011;57049;51.450;-2.516;2022-07-06T00:35:33;3.67;;;0.73;;
69775;SDS011;57049;51.450;-2.516;2022-07-06T00:37:59;5.37;;;0.73;;
69775;SDS011;57049;51.450;-2.516;2022-07-06T00:40:25;3.08;;;0.57;;
69775;SDS011;57049;51.450;-2.516;2022-07-06T00:42:50;3.10;;;0.60;;
69775;SDS011;57049;51.450;-2.516;2022-07-06T00:45:17;4.22;;;0.70;;
69775;SDS011;57049;51.450;-2.516;2022-07-06T00:47:43;3.63;;;0.70;;
69775;SDS011;57049;51.450;-2.516;2022-07-06T00:50:11;4.60;;;0.88;;
69775;SDS011;57049;51.450;-2.516;2022-07-06T00:52:51;3.90;;;0.65;;
69775;SDS011;57049;51.450;-2.516;2022-07-06T00:55:22;3.77;;;0.60;;
69775;SDS011;57049;51.450;-2.516;2022-07-06T00:57:49;3.78;;;0.60;;
69775;SDS011;57049;51.450;-2.516;2022-07-06T01:00:16;3.70;;;0.98;;
69775;SDS011;57049;51.450;-2.516;2022-07-06T01:02:44;3.72;;;0.82;;
69775;SDS011;57049;51.450;-2.516;2022-07-06T01:05:11;3.92;;;0.80;;
69775;SDS011;57049;51.450;-2.516;2022-07-06T01:07:38;3.50;;;1.00;;
69775;SDS011;57049;51.450;-2.516;2022-07-06T01:10:06;4.97;;;1.00;;
69775;SDS011;57049;51.450;-2.516;2022-07-06T01:12:36;3.90;;;0.90;;
69775;SDS011;57049;51.450;-2.516;2022-07-06T01:15:03;4.55;;;0.90;;
69775;SDS011;57049;51.450;-2.516;2022-07-06T01:17:30;5.40;;;1.10;;
69775;SDS011;57049;51.450;-2.516;2022-07-06T01:19:56;4.93;;;0.90;;
69775;SDS011;57049;51.450;-2.516;2022-07-06T01:22:21;4.20;;;0.97;;
69775;SDS011;57049;51.450;-2.516;2022-07-06T01:24:47;4.75;;;1.00;;
69775;SDS011;57049;51.450;-2.516;2022-07-06T01:27:12;5.17;;;0.80;;
69775;SDS011;57049;51.450;-2.516;2022-07-06T01:29:38;3.77;;;0.90;;
69775;SDS011;57049;51.450;-2.516;2022-07-06T01:32:03;4.00;;;1.10;;
69775;SDS011;57049;51.450;-2.516;2022-07-06T01:34:29;4.97;;;1.17;;
69775;SDS011;57049;51.450;-2.516;2022-07-06T01:36:54;4.93;;;1.25;;
69775;SDS011;57049;51.450;-2.516;2022-07-06T01:39:20;5.57;;;1.37;;
69775;SDS011;57049;51.450;-2.516;2022-07-06T01:41:45;6.63;;;1.20;;
69775;SDS011;57049;51.450;-2.516;2022-07-06T01:44:11;3.92;;;1.00;;
69775;SDS011;57049;51.450;-2.516;2022-07-06T01:46:37;3.63;;;0.90;;
69775;SDS011;57049;51.450;-2.516;2022-07-06T01:49:03;4.10;;;1.00;;
69775;SDS011;57049;51.450;-2.516;2022-07-06T01:51:29;5.90;;;1.50;;
69775;SDS011;57049;51.450;-2.516;2022-07-06T01:53:54;5.23;;;1.40;;
69775;SDS011;57049;51.450;-2.516;2022-07-06T01:56:20;4.40;;;1.23;;
69775;SDS011;57049;51.450;-2.516;2022-07-06T01:58:46;5.80;;;1.50;;
69775;SDS011;57049;51.450;-2.516;2022-07-06T02:01:14;5.60;;;1.40;;
69775;SDS011;57049;51.450;-2.516;2022-07-06T02:03:44;4.23;;;1.20;;
69775;SDS011;57049;51.450;-2.516;2022-07-06T02:06:10;4.63;;;1.38;;
69775;SDS011;57049;51.450;-2.516;2022-07-06T02:08:37;5.50;;;1.38;;
69775;SDS011;57049;51.450;-2.516;2022-07-06T02:11:03;4.53;;;1.20;;
69775;SDS011;57049;51.450;-2.516;2022-07-06T02:13:30;5.40;;;1.30;;
69775;SDS011;57049;51.450;-2.516;2022-07-06T02:15:55;5.43;;;1.37;;
69775;SDS011;57049;51.450;-2.516;2022-07-06T02:18:21;4.60;;;1.23;;
69775;SDS011;57049;51.450;-2.516;2022-07-06T02:20:46;6.17;;;1.27;;
69775;SDS011;57049;51.450;-2.516;2022-07-06T02:23:12;4.40;;;1.00;;
69775;SDS011;57049;51.450;-2.516;2022-07-06T02:25:37;5.20;;;1.13;;
69775;SDS011;57049;51.450;-2.516;2022-07-06T02:28:03;4.47;;;1.10;;
69775;SDS011;57049;51.450;-2.516;2022-07-06T02:30:29;5.30;;;1.20;;
69775;SDS011;57049;51.450;-2.516;2022-07-06T02:32:54;6.03;;;1.13;;
69775;SDS011;57049;51.450;-2.516;2022-07-06T02:35:20;4.90;;;1.07;;
69775;SDS011;57049;51.450;-2.516;2022-07-06T02:37:45;5.17;;;1.20;;
69775;SDS011;57049;51.450;-2.516;2022-07-06T02:40:11;5.75;;;1.10;;
69775;SDS011;57049;51.450;-2.516;2022-07-06T02:42:36;5.57;;;1.40;;
69775;SDS011;57049;51.450;-2.516;2022-07-06T02:45:02;4.37;;;1.10;;
69775;SDS011;57049;51.450;-2.516;2022-07-06T02:47:28;5.15;;;1.00;;
69775;SDS011;57049;51.450;-2.516;2022-07-06T02:49:54;5.07;;;1.40;;
69775;SDS011;57049;51.450;-2.516;2022-07-06T02:52:19;4.10;;;1.00;;
69775;SDS011;57049;51.450;-2.516;2022-07-06T02:54:45;4.80;;;1.08;;
69775;SDS011;57049;51.450;-2.516;2022-07-06T02:57:10;4.03;;;1.20;;
69775;SDS011;57049;51.450;-2.516;2022-07-06T02:59:36;4.47;;;1.20;;
69775;SDS011;57049;51.450;-2.516;2022-07-06T03:02:05;4.97;;;1.20;;
69775;SDS011;57049;51.450;-2.516;2022-07-06T03:04:30;4.70;;;1.17;;
69775;SDS011;57049;51.450;-2.516;2022-07-06T03:06:56;3.90;;;1.03;;
69775;SDS011;57049;51.450;-2.516;2022-07-06T03:09:21;4.68;;;1.17;;
69775;SDS011;57049;51.450;-2.516;2022-07-06T03:11:47;4.53;;;1.00;;
69775;SDS011;57049;51.450;-2.516;2022-07-06T03:14:12;4.40;;;1.07;;
69775;SDS011;57049;51.450;-2.516;2022-07-06T03:16:38;4.20;;;1.10;;
69775;SDS011;57049;51.450;-2.516;2022-07-06T03:19:03;4.22;;;1.20;;
69775;SDS011;57049;51.450;-2.516;2022-07-06T03:21:29;4.17;;;0.93;;
69775;SDS011;57049;51.450;-2.516;2022-07-06T03:23:54;3.67;;;1.00;;
69775;SDS011;57049;51.450;-2.516;2022-07-06T03:26:20;4.13;;;1.00;;
69775;SDS011;57049;51.450;-2.516;2022-07-06T03:28:45;4.03;;;0.83;;
69775;SDS011;57049;51.450;-2.516;2022-07-06T03:31:11;4.77;;;1.20;;
69775;SDS011;57049;51.450;-2.516;2022-07-06T03:33:36;4.77;;;1.17;;
69775;SDS011;57049;51.450;-2.516;2022-07-06T03:36:01;4.75;;;0.90;;
69775;SDS011;57049;51.450;-2.516;2022-07-06T03:38:28;5.23;;;1.17;;
69775;SDS011;57049;51.450;-2.516;2022-07-06T03:40:53;3.85;;;1.08;;
69775;SDS011;57049;51.450;-2.516;2022-07-06T03:43:18;3.63;;;1.00;;
69775;SDS011;57049;51.450;-2.516;2022-07-06T03:45:44;3.87;;;1.10;;
69775;SDS011;57049;51.450;-2.516;2022-07-06T03:48:09;4.68;;;1.02;;
69775;SDS011;57049;51.450;-2.516;2022-07-06T03:50:35;4.53;;;1.00;;
69775;SDS011;57049;51.450;-2.516;2022-07-06T03:53:00;4.60;;;1.30;;
69775;SDS011;57049;51.450;-2.516;2022-07-06T03:55:26;4.70;;;0.93;;
69775;SDS011;57049;51.450;-2.516;2022-07-06T03:57:51;4.43;;;1.10;;
69775;SDS011;57049;51.450;-2.516;2022-07-06T04:00:17;4.23;;;1.10;;
69775;SDS011;57049;51.450;-2.516;2022-07-06T04:02:42;3.87;;;0.87;;
69775;SDS011;57049;51.450;-2.516;2022-07-06T04:05:08;3.50;;;0.80;;
69775;SDS011;57049;51.450;-2.516;2022-07-06T04:07:33;3.60;;;0.80;;
69775;SDS011;57049;51.450;-2.516;2022-07-06T04:09:59;4.07;;;0.80;;
69775;SDS011;57049;51.450;-2.516;2022-07-06T04:12:24;4.05;;;1.10;;
69775;SDS011;57049;51.450;-2.516;2022-07-06T04:14:49;4.50;;;0.87;;
69775;SDS011;57049;51.450;-2.516;2022-07-06T04:17:15;4.60;;;1.37;;
69775;SDS011;57049;51.450;-2.516;2022-07-06T04:19:59;3.92;;;1.08;;
69775;SDS011;57049;51.450;-2.516;2022-07-06T04:22:24;4.20;;;1.07;;
69775;SDS011;57049;51.450;-2.516;2022-07-06T04:24:50;4.90;;;1.03;;
69775;SDS011;57049;51.450;-2.516;2022-07-06T04:27:15;3.75;;;0.82;;
69775;SDS011;57049;51.450;-2.516;2022-07-06T04:29:41;3.57;;;1.10;;
69775;SDS011;57049;51.450;-2.516;2022-07-06T04:32:06;3.73;;;0.80;;
69775;SDS011;57049;51.450;-2.516;2022-07-06T04:34:32;4.75;;;1.10;;
69775;SDS011;57049;51.450;-2.516;2022-07-06T04:36:57;4.00;;;1.20;;
69775;SDS011;57049;51.450;-2.516;2022-07-06T04:39:23;5.00;;;1.27;;
69775;SDS011;57049;51.450;-2.516;2022-07-06T04:41:48;4.82;;;1.10;;
69775;SDS011;57049;51.450;-2.516;2022-07-06T04:44:14;4.50;;;1.30;;
69775;SDS011;57049;51.450;-2.516;2022-07-06T04:46:39;4.30;;;1.10;;
69775;SDS011;57049;51.450;-2.516;2022-07-06T04:49:05;4.57;;;1.20;;
69775;SDS011;57049;51.450;-2.516;2022-07-06T04:51:30;4.60;;;1.10;;
69775;SDS011;57049;51.450;-2.516;2022-07-06T04:53:56;3.90;;;1.10;;
69775;SDS011;57049;51.450;-2.516;2022-07-06T04:56:21;7.10;;;1.30;;
69775;SDS011;57049;51.450;-2.516;2022-07-06T04:58:47;4.07;;;1.10;;
69775;SDS011;57049;51.450;-2.516;2022-07-06T05:01:12;5.60;;;1.47;;
69775;SDS011;57049;51.450;-2.516;2022-07-06T05:03:37;8.03;;;1.50;;
69775;SDS011;57049;51.450;-2.516;2022-07-06T05:06:06;4.82;;;1.30;;
69775;SDS011;57049;51.450;-2.516;2022-07-06T05:08:32;4.75;;;1.48;;
69775;SDS011;57049;51.450;-2.516;2022-07-06T05:10:58;8.60;;;2.88;;
69775;SDS011;57049;51.450;-2.516;2022-07-06T05:13:24;5.57;;;1.90;;
69775;SDS011;57049;51.450;-2.516;2022-07-06T05:15:49;5.22;;;1.35;;
69775;SDS011;57049;51.450;-2.516;2022-07-06T05:18:15;5.67;;;1.50;;
69775;SDS011;57049;51.450;-2.516;2022-07-06T05:20:40;4.80;;;1.60;;
69775;SDS011;57049;51.450;-2.516;2022-07-06T05:23:06;5.82;;;1.60;;
69775;SDS011;57049;51.450;-2.516;2022-07-06T05:25:31;5.73;;;1.80;;
69775;SDS011;57049;51.450;-2.516;2022-07-06T05:27:58;5.50;;;1.85;;
69775;SDS011;57049;51.450;-2.516;2022-07-06T05:30:24;4.65;;;1.45;;
69775;SDS011;57049;51.450;-2.516;2022-07-06T05:32:50;9.52;;;2.53;;
69775;SDS011;57049;51.450;-2.516;2022-07-06T05:35:15;5.43;;;2.03;;
69775;SDS011;57049;51.450;-2.516;2022-07-06T05:37:41;6.43;;;2.05;;
69775;SDS011;57049;51.450;-2.516;2022-07-06T05:40:07;6.77;;;1.93;;
69775;SDS011;57049;51.450;-2.516;2022-07-06T05:42:33;5.43;;;1.73;;
69775;SDS011;57049;51.450;-2.516;2022-07-06T05:44:58;7.40;;;2.00;;
69775;SDS011;57049;51.450;-2.516;2022-07-06T05:47:24;5.23;;;1.67;;
69775;SDS011;57049;51.450;-2.516;2022-07-06T05:50:08;4.55;;;1.40;;
69775;SDS011;57049;51.450;-2.516;2022-07-06T05:52:43;7.65;;;1.83;;
69775;SDS011;57049;51.450;-2.516;2022-07-06T05:55:10;8.55;;;1.90;;
69775;SDS011;57049;51.450;-2.516;2022-07-06T05:57:37;5.70;;;1.50;;
69775;SDS011;57049;51.450;-2.516;2022-07-06T06:00:06;7.15;;;1.63;;
69775;SDS011;57049;51.450;-2.516;2022-07-06T06:02:39;4.90;;;1.65;;
69775;SDS011;57049;51.450;-2.516;2022-07-06T06:05:10;6.03;;;1.55;;
69775;SDS011;57049;51.450;-2.516;2022-07-06T06:07:36;5.60;;;2.03;;
69775;SDS011;57049;51.450;-2.516;2022-07-06T06:10:03;5.93;;;1.43;;
69775;SDS011;57049;51.450;-2.516;2022-07-06T06:12:29;5.30;;;1.52;;
69775;SDS011;57049;51.450;-2.516;2022-07-06T06:14:55;4.57;;;1.50;;
69775;SDS011;57049;51.450;-2.516;2022-07-06T06:17:20;6.05;;;1.70;;
69775;SDS011;57049;51.450;-2.516;2022-07-06T06:19:45;5.83;;;1.50;;
69775;SDS011;57049;51.450;-2.516;2022-07-06T06:22:11;5.07;;;1.60;;
69775;SDS011;57049;51.450;-2.516;2022-07-06T06:24:36;4.93;;;1.50;;
69775;SDS011;57049;51.450;-2.516;2022-07-06T06:27:02;6.80;;;1.40;;
69775;SDS011;57049;51.450;-2.516;2022-07-06T06:29:27;4.70;;;1.43;;
69775;SDS011;57049;51.450;-2.516;2022-07-06T06:31:53;6.10;;;1.63;;
69775;SDS011;57049;51.450;-2.516;2022-07-06T06:34:18;4.90;;;1.70;;
69775;SDS011;57049;51.450;-2.516;2022-07-06T06:36:44;6.90;;;1.70;;
69775;SDS011;57049;51.450;-2.516;2022-07-06T06:39:09;6.03;;;1.90;;
69775;SDS011;57049;51.450;-2.516;2022-07-06T06:41:34;5.03;;;1.50;;
69775;SDS011;57049;51.450;-2.516;2022-07-06T06:44:00;7.63;;;1.77;;
69775;SDS011;57049;51.450;-2.516;2022-07-06T06:46:25;6.43;;;1.57;;
69775;SDS011;57049;51.450;-2.516;2022-07-06T06:48:51;4.13;;;1.20;;
69775;SDS011;57049;51.450;-2.516;2022-07-06T06:51:16;6.57;;;1.70;;
69775;SDS011;57049;51.450;-2.516;2022-07-06T06:53:42;5.57;;;1.50;;
69775;SDS011;57049;51.450;-2.516;2022-07-06T06:56:08;4.57;;;1.47;;
69775;SDS011;57049;51.450;-2.516;2022-07-06T06:58:34;5.47;;;1.60;;
69775;SDS011;57049;51.450;-2.516;2022-07-06T07:00:59;5.67;;;1.53;;
69775;SDS011;57049;51.450;-2.516;2022-07-06T07:03:25;6.87;;;1.63;;
69775;SDS011;57049;51.450;-2.516;2022-07-06T07:05:50;5.33;;;1.80;;
69775;SDS011;57049;51.450;-2.516;2022-07-06T07:08:15;4.73;;;1.20;;
69775;SDS011;57049;51.450;-2.516;2022-07-06T07:10:41;4.85;;;1.40;;
69775;SDS011;57049;51.450;-2.516;2022-07-06T07:13:06;4.23;;;1.43;;
69775;SDS011;57049;51.450;-2.516;2022-07-06T07:15:32;5.27;;;1.27;;
69775;SDS011;57049;51.450;-2.516;2022-07-06T07:17:57;4.22;;;1.27;;
69775;SDS011;57049;51.450;-2.516;2022-07-06T07:20:23;5.00;;;1.43;;
69775;SDS011;57049;51.450;-2.516;2022-07-06T07:22:48;5.00;;;1.53;;
69775;SDS011;57049;51.450;-2.516;2022-07-06T07:25:14;4.43;;;1.52;;
69775;SDS011;57049;51.450;-2.516;2022-07-06T07:27:39;7.07;;;1.57;;
69775;SDS011;57049;51.450;-2.516;2022-07-06T07:30:05;4.70;;;1.27;;
69775;SDS011;57049;51.450;-2.516;2022-07-06T07:32:31;6.10;;;1.50;;
69775;SDS011;57049;51.450;-2.516;2022-07-06T07:34:56;4.72;;;1.50;;
69775;SDS011;57049;51.450;-2.516;2022-07-06T07:37:22;4.10;;;1.30;;
69775;SDS011;57049;51.450;-2.516;2022-07-06T07:39:47;4.23;;;1.27;;
69775;SDS011;57049;51.450;-2.516;2022-07-06T07:42:13;4.72;;;1.35;;
69775;SDS011;57049;51.450;-2.516;2022-07-06T07:44:38;5.80;;;2.10;;
69775;SDS011;57049;51.450;-2.516;2022-07-06T07:47:05;8.43;;;1.80;;
69775;SDS011;57049;51.450;-2.516;2022-07-06T07:49:31;4.30;;;1.70;;
69775;SDS011;57049;51.450;-2.516;2022-07-06T07:51:56;5.23;;;1.37;;
69775;SDS011;57049;51.450;-2.516;2022-07-06T07:54:22;4.47;;;1.00;;
69775;SDS011;57049;51.450;-2.516;2022-07-06T07:56:47;5.90;;;0.97;;
69775;SDS011;57049;51.450;-2.516;2022-07-06T07:59:12;4.57;;;1.60;;
69775;SDS011;57049;51.450;-2.516;2022-07-06T08:01:38;4.45;;;1.02;;
69775;SDS011;57049;51.450;-2.516;2022-07-06T08:04:03;3.60;;;1.00;;
69775;SDS011;57049;51.450;-2.516;2022-07-06T08:06:29;4.57;;;1.20;;
69775;SDS011;57049;51.450;-2.516;2022-07-06T08:08:54;5.70;;;1.30;;
69775;SDS011;57049;51.450;-2.516;2022-07-06T08:11:20;3.33;;;1.10;;
69775;SDS011;57049;51.450;-2.516;2022-07-06T08:13:46;3.10;;;1.13;;
69775;SDS011;57049;51.450;-2.516;2022-07-06T08:16:12;4.70;;;1.30;;
69775;SDS011;57049;51.450;-2.516;2022-07-06T08:18:38;5.25;;;1.10;;
69775;SDS011;57049;51.450;-2.516;2022-07-06T08:21:03;4.37;;;1.10;;
69775;SDS011;57049;51.450;-2.516;2022-07-06T08:23:29;4.22;;;1.13;;
69775;SDS011;57049;51.450;-2.516;2022-07-06T08:25:55;3.60;;;0.70;;
69775;SDS011;57049;51.450;-2.516;2022-07-06T08:28:20;2.88;;;0.90;;
69775;SDS011;57049;51.450;-2.516;2022-07-06T08:30:46;3.63;;;0.80;;
69775;SDS011;57049;51.450;-2.516;2022-07-06T08:33:12;3.40;;;0.75;;
69775;SDS011;57049;51.450;-2.516;2022-07-06T08:35:38;3.78;;;0.90;;
69775;SDS011;57049;51.450;-2.516;2022-07-06T08:38:04;2.83;;;0.80;;
69775;SDS011;57049;51.450;-2.516;2022-07-06T08:40:31;3.30;;;0.70;;
69775;SDS011;57049;51.450;-2.516;2022-07-06T08:43:00;3.40;;;0.73;;
69775;SDS011;57049;51.450;-2.516;2022-07-06T08:45:25;2.55;;;0.68;;
69775;SDS011;57049;51.450;-2.516;2022-07-06T08:47:51;3.25;;;0.85;;
69775;SDS011;57049;51.450;-2.516;2022-07-06T08:50:19;3.15;;;1.00;;
69775;SDS011;57049;51.450;-2.516;2022-07-06T08:52:48;3.33;;;0.80;;
69775;SDS011;57049;51.450;-2.516;2022-07-06T08:55:15;2.80;;;1.00;;
69775;SDS011;57049;51.450;-2.516;2022-07-06T08:57:42;3.65;;;0.80;;
69775;SDS011;57049;51.450;-2.516;2022-07-06T09:00:14;3.10;;;0.70;;
69775;SDS011;57049;51.450;-2.516;2022-07-06T09:02:40;2.85;;;0.70;;
69775;SDS011;57049;51.450;-2.516;2022-07-06T09:05:06;2.73;;;0.70;;
69775;SDS011;57049;51.450;-2.516;2022-07-06T09:07:34;2.63;;;0.85;;
69775;SDS011;57049;51.450;-2.516;2022-07-06T09:10:00;2.80;;;0.70;;
69775;SDS011;57049;51.450;-2.516;2022-07-06T09:12:27;3.38;;;0.70;;
69775;SDS011;57049;51.450;-2.516;2022-07-06T09:14:56;5.17;;;0.70;;
69775;SDS011;57049;51.450;-2.516;2022-07-06T09:17:25;3.00;;;0.63;;
69775;SDS011;57049;51.450;-2.516;2022-07-06T09:19:52;3.25;;;0.70;;
69775;SDS011;57049;51.450;-2.516;2022-07-06T09:22:28;3.33;;;0.60;;
69775;SDS011;57049;51.450;-2.516;2022-07-06T09:25:06;3.70;;;0.50;;
69775;SDS011;57049;51.450;-2.516;2022-07-06T09:27:37;3.42;;;0.80;;
69775;SDS011;57049;51.450;-2.516;2022-07-06T09:30:03;3.50;;;0.70;;
69775;SDS011;57049;51.450;-2.516;2022-07-06T09:32:30;2.85;;;0.80;;
69775;SDS011;57049;51.450;-2.516;2022-07-06T09:34:56;4.13;;;0.80;;
69775;SDS011;57049;51.450;-2.516;2022-07-06T09:37:22;2.83;;;0.68;;
69775;SDS011;57049;51.450;-2.516;2022-07-06T09:39:50;3.40;;;0.85;;
69775;SDS011;57049;51.450;-2.516;2022-07-06T09:42:16;2.83;;;0.67;;
69775;SDS011;57049;51.450;-2.516;2022-07-06T09:44:41;2.80;;;0.90;;
69775;SDS011;57049;51.450;-2.516;2022-07-06T09:47:07;3.93;;;0.80;;
69775;SDS011;57049;51.450;-2.516;2022-07-06T09:49:35;3.20;;;0.90;;
69775;SDS011;57049;51.450;-2.516;2022-07-06T09:52:05;2.70;;;0.90;;
69775;SDS011;57049;51.450;-2.516;2022-07-06T09:54:35;3.70;;;1.00;;
69775;SDS011;57049;51.450;-2.516;2022-07-06T09:57:02;3.65;;;0.80;;
69775;SDS011;57049;51.450;-2.516;2022-07-06T09:59:29;2.85;;;1.00;;
69775;SDS011;57049;51.450;-2.516;2022-07-06T10:01:56;2.90;;;0.90;;
69775;SDS011;57049;51.450;-2.516;2022-07-06T10:04:24;5.13;;;0.90;;
69775;SDS011;57049;51.450;-2.516;2022-07-06T10:06:51;2.83;;;0.60;;
69775;SDS011;57049;51.450;-2.516;2022-07-06T10:09:18;4.25;;;1.10;;
69775;SDS011;57049;51.450;-2.516;2022-07-06T10:11:47;4.47;;;0.90;;
69775;SDS011;57049;51.450;-2.516;2022-07-06T10:14:19;3.17;;;0.90;;
69775;SDS011;57049;51.450;-2.516;2022-07-06T10:16:46;3.10;;;0.70;;
69775;SDS011;57049;51.450;-2.516;2022-07-06T10:19:13;2.73;;;0.60;;
69775;SDS011;57049;51.450;-2.516;2022-07-06T10:21:39;2.53;;;0.60;;
69775;SDS011;57049;51.450;-2.516;2022-07-06T10:24:05;2.40;;;0.50;;
69775;SDS011;57049;51.450;-2.516;2022-07-06T10:26:32;2.50;;;0.50;;
69775;SDS011;57049;51.450;-2.516;2022-07-06T10:28:59;3.88;;;0.70;;
69775;SDS011;57049;51.450;-2.516;2022-07-06T10:31:25;4.23;;;0.50;;
69775;SDS011;57049;51.450;-2.516;2022-07-06T10:33:54;2.58;;;0.57;;
69775;SDS011;57049;51.450;-2.516;2022-07-06T10:36:21;3.10;;;0.60;;
69775;SDS011;57049;51.450;-2.516;2022-07-06T10:38:50;2.80;;;0.57;;
69775;SDS011;57049;51.450;-2.516;2022-07-06T10:41:17;3.07;;;0.53;;
69775;SDS011;57049;51.450;-2.516;2022-07-06T10:43:47;3.58;;;0.50;;
69775;SDS011;57049;51.450;-2.516;2022-07-06T10:46:16;2.58;;;0.40;;
69775;SDS011;57049;51.450;-2.516;2022-07-06T10:48:44;3.17;;;0.52;;
69775;SDS011;57049;51.450;-2.516;2022-07-06T10:51:12;2.88;;;0.70;;
69775;SDS011;57049;51.450;-2.516;2022-07-06T10:53:46;3.63;;;0.60;;
69775;SDS011;57049;51.450;-2.516;2022-07-06T10:56:21;4.35;;;0.90;;
69775;SDS011;57049;51.450;-2.516;2022-07-06T10:59:08;3.25;;;0.80;;
69775;SDS011;57049;51.450;-2.516;2022-07-06T11:01:36;2.90;;;0.73;;
69775;SDS011;57049;51.450;-2.516;2022-07-06T11:06:29;3.05;;;0.70;;
69775;SDS011;57049;51.450;-2.516;2022-07-06T11:09:16;3.58;;;0.65;;
69775;SDS011;57049;51.450;-2.516;2022-07-06T11:11:42;3.40;;;0.68;;
69775;SDS011;57049;51.450;-2.516;2022-07-06T11:19:08;3.42;;;0.60;;
69775;SDS011;57049;51.450;-2.516;2022-07-06T11:24:09;2.60;;;0.50;;
69775;SDS011;57049;51.450;-2.516;2022-07-06T11:26:36;3.87;;;0.60;;
69775;SDS011;57049;51.450;-2.516;2022-07-06T11:29:05;2.63;;;0.50;;
69775;SDS011;57049;51.450;-2.516;2022-07-06T11:31:36;3.00;;;0.70;;
69775;SDS011;57049;51.450;-2.516;2022-07-06T11:34:03;2.87;;;0.50;;
69775;SDS011;57049;51.450;-2.516;2022-07-06T11:36:30;2.55;;;0.40;;
69775;SDS011;57049;51.450;-2.516;2022-07-06T11:38:57;2.75;;;0.40;;
69775;SDS011;57049;51.450;-2.516;2022-07-06T11:41:22;2.70;;;0.40;;
69775;SDS011;57049;51.450;-2.516;2022-07-06T11:43:48;3.13;;;0.57;;
69775;SDS011;57049;51.450;-2.516;2022-07-06T11:46:23;2.67;;;0.40;;
69775;SDS011;57049;51.450;-2.516;2022-07-06T11:48:56;2.90;;;0.40;;
69775;SDS011;57049;51.450;-2.516;2022-07-06T11:51:36;3.73;;;0.50;;
69775;SDS011;57049;51.450;-2.516;2022-07-06T11:54:22;2.95;;;0.30;;
69775;SDS011;57049;51.450;-2.516;2022-07-06T11:56:50;3.90;;;0.70;;
69775;SDS011;57049;51.450;-2.516;2022-07-06T11:59:19;2.40;;;0.40;;
69775;SDS011;57049;51.450;-2.516;2022-07-06T12:01:47;3.35;;;0.68;;
69775;SDS011;57049;51.450;-2.516;2022-07-06T12:04:12;3.60;;;0.60;;
69775;SDS011;57049;51.450;-2.516;2022-07-06T12:06:37;3.30;;;0.60;;
69775;SDS011;57049;51.450;-2.516;2022-07-06T12:09:03;3.72;;;0.60;;
69775;SDS011;57049;51.450;-2.516;2022-07-06T12:11:32;2.37;;;0.40;;
69775;SDS011;57049;51.450;-2.516;2022-07-06T12:14:00;2.97;;;0.40;;
69775;SDS011;57049;51.450;-2.516;2022-07-06T12:16:46;3.33;;;0.65;;
69775;SDS011;57049;51.450;-2.516;2022-07-06T12:19:14;3.33;;;0.82;;
69775;SDS011;57049;51.450;-2.516;2022-07-06T12:21:44;5.38;;;0.70;;
69775;SDS011;57049;51.450;-2.516;2022-07-06T12:26:44;4.45;;;0.60;;
69775;SDS011;57049;51.450;-2.516;2022-07-06T12:29:11;4.18;;;0.90;;
69775;SDS011;57049;51.450;-2.516;2022-07-06T12:34:22;6.43;;;1.60;;
69775;SDS011;57049;51.450;-2.516;2022-07-06T12:36:50;3.70;;;0.80;;
69775;SDS011;57049;51.450;-2.516;2022-07-06T12:39:19;6.70;;;0.70;;
69775;SDS011;57049;51.450;-2.516;2022-07-06T12:41:56;3.92;;;0.95;;
69775;SDS011;57049;51.450;-2.516;2022-07-06T12:44:26;4.35;;;0.98;;
69775;SDS011;57049;51.450;-2.516;2022-07-06T12:47:02;4.87;;;0.80;;
69775;SDS011;57049;51.450;-2.516;2022-07-06T12:49:29;4.07;;;0.98;;
69775;SDS011;57049;51.450;-2.516;2022-07-06T12:51:59;3.75;;;0.88;;
69775;SDS011;57049;51.450;-2.516;2022-07-06T12:54:29;3.70;;;0.98;;
69775;SDS011;57049;51.450;-2.516;2022-07-06T12:59:36;4.85;;;1.00;;
69775;SDS011;57049;51.450;-2.516;2022-07-06T13:02:04;4.03;;;0.65;;
69775;SDS011;57049;51.450;-2.516;2022-07-06T13:04:31;4.20;;;0.70;;
69775;SDS011;57049;51.450;-2.516;2022-07-06T13:06:57;3.77;;;0.70;;
69775;SDS011;57049;51.450;-2.516;2022-07-06T13:09:23;4.32;;;0.73;;
69775;SDS011;57049;51.450;-2.516;2022-07-06T13:11:49;4.78;;;0.82;;
69775;SDS011;57049;51.450;-2.516;2022-07-06T13:14:15;3.47;;;1.00;;
69775;SDS011;57049;51.450;-2.516;2022-07-06T13:16:42;3.90;;;0.88;;
69775;SDS011;57049;51.450;-2.516;2022-07-06T13:19:08;5.93;;;1.85;;
69775;SDS011;57049;51.450;-2.516;2022-07-06T13:21:34;4.27;;;0.60;;
69775;SDS011;57049;51.450;-2.516;2022-07-06T13:24:00;5.93;;;1.15;;
69775;SDS011;57049;51.450;-2.516;2022-07-06T13:26:25;3.70;;;0.98;;
69775;SDS011;57049;51.450;-2.516;2022-07-06T13:28:51;4.83;;;0.90;;
69775;SDS011;57049;51.450;-2.516;2022-07-06T13:31:17;7.00;;;1.13;;
69775;SDS011;57049;51.450;-2.516;2022-07-06T13:33:42;5.27;;;0.80;;
69775;SDS011;57049;51.450;-2.516;2022-07-06T13:36:07;5.47;;;1.03;;
69775;SDS011;57049;51.450;-2.516;2022-07-06T13:38:33;4.50;;;0.90;;
69775;SDS011;57049;51.450;-2.516;2022-07-06T13:40:58;5.47;;;0.80;;
69775;SDS011;57049;51.450;-2.516;2022-07-06T13:43:24;4.70;;;1.00;;
69775;SDS011;57049;51.450;-2.516;2022-07-06T13:45:49;5.67;;;1.20;;
69775;SDS011;57049;51.450;-2.516;2022-07-06T13:48:15;4.63;;;0.80;;
69775;SDS011;57049;51.450;-2.516;2022-07-06T13:50:40;5.43;;;1.20;;
69775;SDS011;57049;51.450;-2.516;2022-07-06T13:53:06;6.37;;;1.10;;
69775;SDS011;57049;51.450;-2.516;2022-07-06T13:55:32;6.78;;;1.00;;
69775;SDS011;57049;51.450;-2.516;2022-07-06T13:57:57;4.22;;;0.80;;
69775;SDS011;57049;51.450;-2.516;2022-07-06T14:00:23;8.27;;;1.00;;
69775;SDS011;57049;51.450;-2.516;2022-07-06T14:02:49;4.15;;;0.80;;
69775;SDS011;57049;51.450;-2.516;2022-07-06T14:05:14;4.70;;;0.90;;
69775;SDS011;57049;51.450;-2.516;2022-07-06T14:07:40;4.38;;;0.70;;
69775;SDS011;57049;51.450;-2.516;2022-07-06T14:10:06;3.73;;;0.73;;
69775;SDS011;57049;51.450;-2.516;2022-07-06T14:12:31;5.05;;;0.57;;
69775;SDS011;57049;51.450;-2.516;2022-07-06T14:14:57;4.63;;;0.60;;
69775;SDS011;57049;51.450;-2.516;2022-07-06T14:17:22;5.03;;;0.80;;
69775;SDS011;57049;51.450;-2.516;2022-07-06T14:19:48;5.68;;;0.80;;
69775;SDS011;57049;51.450;-2.516;2022-07-06T14:22:14;6.57;;;0.60;;
69775;SDS011;57049;51.450;-2.516;2022-07-06T14:24:40;7.60;;;1.10;;
69775;SDS011;57049;51.450;-2.516;2022-07-06T14:27:05;7.10;;;1.00;;
69775;SDS011;57049;51.450;-2.516;2022-07-06T14:29:31;8.50;;;0.63;;
69775;SDS011;57049;51.450;-2.516;2022-07-06T14:31:56;7.68;;;0.82;;
69775;SDS011;57049;51.450;-2.516;2022-07-06T14:34:21;6.63;;;1.00;;
69775;SDS011;57049;51.450;-2.516;2022-07-06T14:36:47;4.20;;;0.90;;
69775;SDS011;57049;51.450;-2.516;2022-07-06T14:39:12;5.17;;;0.80;;
69775;SDS011;57049;51.450;-2.516;2022-07-06T14:41:38;5.75;;;0.85;;
69775;SDS011;57049;51.450;-2.516;2022-07-06T14:44:04;9.93;;;2.40;;
69775;SDS011;57049;51.450;-2.516;2022-07-06T14:46:30;5.68;;;1.00;;
69775;SDS011;57049;51.450;-2.516;2022-07-06T14:48:56;4.55;;;0.70;;